Aérodrome :
LOGIN :

S'inscrire | Disclaimer

   EN    FR    IT 

 










Légende :    VFR   VFR Marginal   IFR   IFR Intensif   IFR Très Intensif
Visi : 
Plafond : 
>= 8 km
>= 3000ft
5 à 8 km
1000 à 3000 ft
1500m à 5 km
500 à 1000 ft
800 à 1500m
200 à 500 ft
< 800m
< 200 ft
Symboles :   Orages  Brouillard  Fortes neiges  Fortes précipitations  Vent > 20 kt
SIGMETs :   Divers  Orages  Givrage  Turbulence  Onde Orograph.  Cendres Volcan.






- Altitude de l'aérodrome : 490 ft
- Code IATA : CHQ


LGSA - Ioannis Daskalogiannis

DERNIER METAR :
  • 310050Z 00000KT 9999 FEW020 SCT100 17/15 Q1015

METARs EXPIRÉS :
  • 310020Z 00000KT 9999 FEW020 SCT100 17/15 Q1015
  • 302350Z 00000KT 9999 FEW020 SCT100 17/15 Q1015
  • 302320Z 00000KT 9999 FEW020 17/14 Q1016
  • 302250Z 00000KT 9999 FEW020 17/14 Q1016
  • 302220Z 00000KT 9999 FEW020 18/14 Q1016

TAF TAF LGSA
Valide du 31 à 00h jusqu'au 01 à 00h UTC


302300Z 3100/3124 VRB05KT 9999 FEW020
BECMG 3100/3102 SCT020 BKN080
BECMG 3106/3108 06010KT
PROB30
TEMPO 3100/3109 5000 RA FEW018TCU SCT020 BKN070
PROB30
TEMPO 3109/3113 5000 SHRA FEW018TCU BKN020 BKN070



MET'MAP, la Météo Aéronautique d'un coup d'oeil ! - Copyright ORBIFLY Décembre 2007 - Disclaimer

ORBIFLY MET'MAP TEAM :

Programmation & Développement : Alexandra Zaïnal
Sur une idée originale de : Baudouin d'Aumeries
Assistance à la programmation : Marc-Olivier Méhu
Soutien technique & logistique : Manuel Goepfert

Contact : metmap@orbifly.com




SOURCES & CREDITS :

   NOAA